Time;durP1;ratioP1;P1;durP2;ratioP2;P2;SDS_P1;SDS_P2;PMS_P1;PMS_P2;Temp;Humidity;BMP_temperature;BMP_pressure;BME280_temperature;BME280_humidity;BME280_pressure;Samples;Min_cycle;Max_cycle;Signal;HPM_P1;HPM_P2
2024/03/22 00:01:46;;;;;;;8.63;6.67;;;8.00;99.90;;;;;;5044690;28;20426;-62
2024/03/22 00:04:12;;;;;;;9.13;6.60;;;8.00;99.90;;;;;;5050339;28;20482;-62
2024/03/22 00:06:39;;;;;;;11.53;7.20;;;7.90;99.90;;;;;;5041633;28;20510;-63
2024/03/22 00:09:05;;;;;;;9.20;7.10;;;7.80;99.90;;;;;;5044886;28;20453;-62
2024/03/22 00:11:31;;;;;;;11.00;7.40;;;7.80;99.90;;;;;;5045911;28;20453;-61
2024/03/22 00:13:56;;;;;;;15.67;7.50;;;7.80;99.90;;;;;;5022264;28;20274;-62
2024/03/22 00:16:22;;;;;;;10.93;7.83;;;7.70;99.90;;;;;;5047361;28;20461;-63
2024/03/22 00:18:48;;;;;;;11.87;7.53;;;7.70;99.90;;;;;;5043181;28;20202;-61
2024/03/22 00:21:13;;;;;;;12.93;7.53;;;7.70;99.90;;;;;;5041489;28;20172;-61
2024/03/22 00:23:39;;;;;;;8.70;6.40;;;7.60;99.90;;;;;;5042769;28;20699;-62
2024/03/22 00:26:04;;;;;;;8.87;6.60;;;7.60;99.90;;;;;;5040983;28;20191;-63
2024/03/22 00:28:30;;;;;;;8.87;6.50;;;7.60;99.90;;;;;;5043592;28;20178;-61
2024/03/22 00:30:55;;;;;;;12.57;7.23;;;7.60;99.90;;;;;;5026696;28;20179;-62
2024/03/22 00:33:21;;;;;;;10.33;6.83;;;7.50;99.90;;;;;;5043253;28;20202;-62
2024/03/22 00:35:47;;;;;;;11.13;6.60;;;7.50;99.90;;;;;;5042933;28;20218;-63
2024/03/22 00:38:13;;;;;;;8.90;6.83;;;7.40;99.90;;;;;;5028857;28;20693;-61
2024/03/22 00:40:38;;;;;;;8.97;6.63;;;7.40;99.90;;;;;;5033067;28;20414;-61
2024/03/22 00:43:04;;;;;;;12.23;7.13;;;7.30;99.90;;;;;;5036092;28;20172;-61
2024/03/22 00:45:30;;;;;;;10.30;6.83;;;7.30;99.90;;;;;;5024355;28;20175;-61
2024/03/22 00:47:55;;;;;;;12.73;6.80;;;7.30;99.90;;;;;;5043949;28;20190;-62
2024/03/22 00:50:21;;;;;;;10.53;6.70;;;7.20;99.90;;;;;;5038194;28;20207;-62
2024/03/22 00:52:46;;;;;;;12.03;7.90;;;7.20;99.90;;;;;;5023640;28;20845;-61
2024/03/22 00:55:12;;;;;;;9.10;6.33;;;7.20;99.90;;;;;;5038779;28;20274;-62
2024/03/22 00:57:37;;;;;;;11.40;6.87;;;7.10;99.90;;;;;;5041198;28;20195;-62
2024/03/22 01:00:04;;;;;;;10.77;7.20;;;7.10;99.90;;;;;;5043436;28;20203;-62
2024/03/22 01:02:30;;;;;;;13.20;6.93;;;7.00;99.90;;;;;;5048391;28;20170;-61
2024/03/22 01:04:55;;;;;;;8.60;6.30;;;7.00;99.90;;;;;;5046154;28;20452;-60
2024/03/22 01:07:21;;;;;;;10.20;6.97;;;6.90;99.90;;;;;;5043631;28;20210;-62
2024/03/22 01:09:46;;;;;;;12.20;7.17;;;6.90;99.90;;;;;;5047002;28;20182;-62
2024/03/22 01:12:12;;;;;;;10.70;7.33;;;6.90;99.90;;;;;;5045097;28;20176;-62
2024/03/22 01:14:38;;;;;;;10.90;6.83;;;6.80;99.90;;;;;;5045557;28;20200;-63
2024/03/22 01:17:03;;;;;;;12.07;7.10;;;6.80;99.90;;;;;;5044531;28;20215;-60
2024/03/22 01:19:29;;;;;;;13.37;7.50;;;6.80;99.90;;;;;;5043833;28;20172;-61
2024/03/22 01:21:54;;;;;;;8.57;6.63;;;6.70;99.90;;;;;;5045100;28;20171;-62
2024/03/22 01:24:20;;;;;;;14.70;7.80;;;6.70;99.90;;;;;;5046029;28;20265;-62
2024/03/22 01:26:46;;;;;;;10.17;6.57;;;6.70;99.90;;;;;;5030269;28;20205;-61
2024/03/22 01:29:13;;;;;;;11.00;7.07;;;6.70;99.90;;;;;;5040677;28;20202;-61
2024/03/22 01:31:39;;;;;;;8.90;6.70;;;6.70;99.90;;;;;;5045568;28;20168;-62
2024/03/22 01:34:05;;;;;;;10.20;6.63;;;6.70;99.90;;;;;;5045151;28;21088;-62
2024/03/22 01:36:30;;;;;;;12.03;7.10;;;6.60;99.90;;;;;;5044159;28;20198;-61
2024/03/22 01:38:57;;;;;;;9.67;7.17;;;6.60;99.90;;;;;;5045811;28;20441;-62
2024/03/22 01:41:23;;;;;;;10.70;6.63;;;6.60;99.90;;;;;;5028754;28;22080;-62
2024/03/22 01:43:49;;;;;;;8.90;7.20;;;6.50;99.90;;;;;;5046394;28;20280;-62
2024/03/22 01:46:14;;;;;;;15.93;7.97;;;6.50;99.90;;;;;;5045319;28;20488;-62
2024/03/22 01:48:40;;;;;;;11.53;8.10;;;6.40;99.90;;;;;;5041951;28;20193;-61
2024/03/22 01:51:06;;;;;;;11.07;7.43;;;6.40;99.90;;;;;;5026626;28;20179;-62
2024/03/22 01:53:33;;;;;;;14.87;8.30;;;6.40;99.90;;;;;;5041568;28;20180;-61
2024/03/22 01:55:59;;;;;;;21.00;8.17;;;6.40;99.90;;;;;;5047667;28;20202;-62
2024/03/22 01:58:25;;;;;;;14.07;8.23;;;6.40;99.90;;;;;;5021660;28;20447;-62
2024/03/22 02:00:50;;;;;;;14.83;9.40;;;6.30;99.90;;;;;;5037536;28;20749;-62
2024/03/22 02:03:16;;;;;;;15.23;8.33;;;6.30;99.90;;;;;;5029536;28;20198;-61
2024/03/22 02:05:41;;;;;;;13.30;8.70;;;6.30;99.90;;;;;;5046634;28;20198;-62
2024/03/22 02:08:07;;;;;;;11.50;8.90;;;6.30;99.90;;;;;;5043465;28;20284;-61
2024/03/22 02:10:33;;;;;;;13.77;8.63;;;6.30;99.90;;;;;;5045420;28;20175;-61
2024/03/22 02:12:58;;;;;;;15.93;9.27;;;6.30;99.90;;;;;;5044926;28;20187;-61
2024/03/22 02:15:24;;;;;;;12.10;7.37;;;6.30;99.90;;;;;;5042758;28;20242;-61
2024/03/22 02:17:50;;;;;;;11.70;8.00;;;6.30;99.90;;;;;;5041694;28;20238;-62
2024/03/22 02:20:15;;;;;;;10.33;8.37;;;6.30;99.90;;;;;;5041150;28;20325;-62
2024/03/22 02:22:41;;;;;;;12.17;7.80;;;6.20;99.90;;;;;;5041766;28;20810;-61
2024/03/22 02:25:07;;;;;;;14.27;8.37;;;6.20;99.90;;;;;;5039978;28;20262;-62
2024/03/22 02:27:34;;;;;;;16.60;8.70;;;6.20;99.90;;;;;;5033148;28;20192;-61
2024/03/22 02:29:59;;;;;;;11.50;8.00;;;6.20;99.90;;;;;;5045045;28;20418;-61
2024/03/22 02:32:25;;;;;;;12.83;8.40;;;6.20;99.90;;;;;;5037469;28;20485;-62
2024/03/22 02:34:50;;;;;;;14.43;7.80;;;6.10;99.90;;;;;;5045333;28;20313;-61
2024/03/22 02:37:16;;;;;;;11.30;8.63;;;6.10;99.90;;;;;;5045061;28;20206;-62
2024/03/22 02:39:42;;;;;;;16.23;8.83;;;6.10;99.90;;;;;;5045928;28;20249;-61
2024/03/22 02:42:08;;;;;;;12.20;8.67;;;6.00;99.90;;;;;;5030408;28;20274;-61
2024/03/22 02:44:33;;;;;;;11.70;7.87;;;6.00;99.90;;;;;;5041032;28;20525;-62
2024/03/22 02:46:59;;;;;;;18.03;8.47;;;6.00;99.90;;;;;;5040229;28;20211;-61
2024/03/22 02:49:25;;;;;;;13.17;8.33;;;5.90;99.90;;;;;;5040036;28;20557;-61
2024/03/22 02:51:51;;;;;;;11.40;8.00;;;5.90;99.90;;;;;;5047872;28;20191;-62
2024/03/22 02:54:16;;;;;;;14.23;7.60;;;5.90;99.90;;;;;;5020895;28;20448;-62
2024/03/22 02:56:42;;;;;;;10.27;7.33;;;5.90;99.90;;;;;;5041386;28;20640;-63
2024/03/22 02:59:08;;;;;;;13.00;8.10;;;5.80;99.90;;;;;;5045897;28;20223;-61
2024/03/22 03:01:33;;;;;;;12.07;7.00;;;5.80;99.90;;;;;;5037117;28;20649;-62
2024/03/22 03:03:59;;;;;;;12.43;7.67;;;5.80;99.90;;;;;;5046277;28;20179;-62
2024/03/22 03:06:24;;;;;;;10.73;7.43;;;5.80;99.90;;;;;;5025393;28;20202;-61
2024/03/22 03:08:50;;;;;;;13.30;7.57;;;5.70;99.90;;;;;;5043452;28;20190;-59
2024/03/22 03:11:15;;;;;;;11.47;7.90;;;5.70;99.90;;;;;;5043406;28;20176;-62
2024/03/22 03:13:41;;;;;;;15.80;8.10;;;5.60;99.90;;;;;;5037732;28;20180;-62
2024/03/22 03:16:07;;;;;;;14.03;8.90;;;5.60;99.90;;;;;;5041809;28;20282;-61
2024/03/22 03:18:32;;;;;;;11.77;8.40;;;5.50;99.90;;;;;;5041610;28;20171;-62
2024/03/22 03:20:58;;;;;;;14.77;8.00;;;5.50;99.90;;;;;;5041647;28;20707;-61
2024/03/22 03:23:24;;;;;;;11.83;7.77;;;5.40;99.90;;;;;;5042194;28;20600;-62
2024/03/22 03:25:49;;;;;;;14.13;8.30;;;5.40;99.90;;;;;;5038523;28;20202;-61
2024/03/22 03:28:15;;;;;;;12.60;8.30;;;5.40;99.90;;;;;;5044203;28;20657;-61
2024/03/22 03:30:40;;;;;;;14.90;8.60;;;5.40;99.90;;;;;;5045667;28;20175;-61
2024/03/22 03:33:06;;;;;;;14.90;9.07;;;5.30;99.90;;;;;;5046356;28;20265;-62
2024/03/22 03:35:31;;;;;;;15.10;8.77;;;5.30;99.90;;;;;;5039111;28;20207;-61
2024/03/22 03:37:57;;;;;;;16.73;8.87;;;5.30;99.90;;;;;;5038705;28;20249;-61
2024/03/22 03:40:24;;;;;;;14.23;8.13;;;5.30;99.90;;;;;;5040596;28;20176;-61
2024/03/22 03:42:50;;;;;;;17.70;8.73;;;5.30;99.90;;;;;;5030456;28;20214;-61
2024/03/22 03:45:16;;;;;;;12.97;8.20;;;5.30;99.90;;;;;;5045292;28;20448;-62
2024/03/22 03:47:42;;;;;;;13.13;8.50;;;5.30;99.90;;;;;;5025195;28;20465;-61
2024/03/22 03:50:08;;;;;;;12.63;8.00;;;5.30;99.90;;;;;;5048638;28;20832;-61
2024/03/22 03:52:33;;;;;;;16.37;8.60;;;5.30;99.90;;;;;;5044581;28;20191;-61
2024/03/22 03:54:59;;;;;;;19.93;8.97;;;5.30;99.90;;;;;;5037032;28;20233;-62
2024/03/22 03:57:25;;;;;;;12.43;8.50;;;5.30;99.90;;;;;;5041372;28;20724;-62
2024/03/22 03:59:50;;;;;;;15.93;8.70;;;5.30;99.90;;;;;;5047366;28;20175;-62
2024/03/22 04:02:16;;;;;;;12.17;8.53;;;5.40;99.90;;;;;;5040336;28;20184;-61
2024/03/22 04:04:41;;;;;;;10.67;8.03;;;5.40;99.90;;;;;;5045139;28;20655;-62
2024/03/22 04:07:07;;;;;;;11.10;7.60;;;5.40;99.90;;;;;;5034651;28;20188;-62
2024/03/22 04:09:33;;;;;;;12.70;8.80;;;5.40;99.90;;;;;;5036355;28;20178;-63
2024/03/22 04:11:59;;;;;;;12.33;8.60;;;5.30;99.90;;;;;;5041208;28;20167;-63
2024/03/22 04:14:26;;;;;;;17.57;9.23;;;5.30;99.90;;;;;;5038165;28;20435;-62
2024/03/22 04:16:54;;;;;;;17.50;8.40;;;5.30;99.90;;;;;;5042255;28;20245;-61
2024/03/22 04:19:20;;;;;;;17.53;8.70;;;5.30;99.90;;;;;;5044071;28;20504;-60
2024/03/22 04:21:45;;;;;;;11.97;7.87;;;5.30;99.90;;;;;;5044734;28;20951;-62
2024/03/22 04:24:11;;;;;;;11.17;7.77;;;5.30;99.90;;;;;;5041356;28;20175;-60
2024/03/22 04:26:36;;;;;;;13.47;8.23;;;5.30;99.90;;;;;;5040293;28;20769;-62
2024/03/22 04:29:02;;;;;;;15.63;8.40;;;5.30;99.90;;;;;;5045398;28;20217;-61
2024/03/22 04:31:27;;;;;;;11.93;8.40;;;5.30;99.90;;;;;;5039974;28;20195;-62
2024/03/22 04:33:53;;;;;;;11.70;8.77;;;5.40;99.90;;;;;;5039989;28;20176;-62
2024/03/22 04:36:19;;;;;;;11.27;8.20;;;5.40;99.90;;;;;;5041019;28;20248;-61
2024/03/22 04:38:44;;;;;;;19.57;8.47;;;5.40;99.90;;;;;;5037877;28;20175;-61
2024/03/22 04:41:10;;;;;;;14.13;8.60;;;5.30;99.90;;;;;;5036704;28;20182;-62
2024/03/22 04:43:35;;;;;;;12.47;8.37;;;5.30;99.90;;;;;;5044943;28;20183;-61
2024/03/22 04:46:01;;;;;;;16.93;10.17;;;5.30;99.90;;;;;;5042116;28;20195;-61
2024/03/22 04:48:26;;;;;;;10.20;8.37;;;5.30;99.90;;;;;;5044190;28;20274;-61
2024/03/22 04:50:53;;;;;;;13.63;9.63;;;5.30;99.90;;;;;;5045795;28;20673;-61
2024/03/22 04:53:22;;;;;;;15.03;9.37;;;5.30;99.90;;;;;;5036631;28;20171;-61
2024/03/22 04:55:50;;;;;;;14.50;8.43;;;5.30;99.90;;;;;;5040835;28;20457;-60
2024/03/22 04:58:20;;;;;;;13.80;9.33;;;5.30;99.90;;;;;;5041257;28;20491;-60
2024/03/22 05:00:46;;;;;;;11.30;8.83;;;5.40;99.90;;;;;;5049172;28;20429;-60
2024/03/22 05:03:12;;;;;;;18.20;9.20;;;5.40;99.90;;;;;;5045891;28;20728;-60
2024/03/22 05:05:39;;;;;;;14.03;8.20;;;5.40;99.90;;;;;;5041858;28;21147;-62
2024/03/22 05:08:06;;;;;;;14.37;9.10;;;5.40;99.90;;;;;;5040146;28;20253;-62
2024/03/22 05:10:31;;;;;;;14.07;9.33;;;5.40;99.90;;;;;;5042299;28;20442;-62
2024/03/22 05:12:57;;;;;;;13.23;8.73;;;5.40;99.90;;;;;;5046877;28;20995;-62
2024/03/22 05:15:25;;;;;;;16.60;8.97;;;5.30;99.90;;;;;;5044877;28;20286;-61
2024/03/22 05:17:51;;;;;;;14.20;8.60;;;5.30;99.90;;;;;;5026165;28;21000;-63
2024/03/22 05:20:17;;;;;;;11.87;8.50;;;5.30;99.90;;;;;;5042939;28;20518;-63
2024/03/22 05:22:42;;;;;;;22.03;9.23;;;5.30;99.90;;;;;;5041933;28;20429;-62
2024/03/22 05:25:09;;;;;;;14.87;9.13;;;5.30;99.90;;;;;;5038862;28;20449;-61
2024/03/22 05:27:35;;;;;;;12.97;9.10;;;5.30;99.90;;;;;;5034317;28;20723;-61
2024/03/22 05:30:01;;;;;;;15.57;9.40;;;5.30;99.90;;;;;;5041625;28;20449;-63
2024/03/22 05:32:27;;;;;;;12.07;8.30;;;5.30;99.90;;;;;;5033292;28;21098;-61
2024/03/22 05:34:53;;;;;;;14.03;8.77;;;5.30;99.90;;;;;;5031755;28;20191;-62
2024/03/22 05:37:19;;;;;;;14.00;9.07;;;5.30;99.90;;;;;;5042210;28;20205;-62
2024/03/22 05:39:44;;;;;;;15.40;8.80;;;5.30;99.90;;;;;;5044346;28;20442;-62
2024/03/22 05:42:10;;;;;;;16.33;10.07;;;5.30;99.90;;;;;;5037942;28;20176;-63
2024/03/22 05:44:35;;;;;;;26.60;11.00;;;5.30;99.90;;;;;;5038828;28;20648;-62
2024/03/22 05:47:01;;;;;;;17.00;9.97;;;5.30;99.90;;;;;;5050997;28;20190;-62
2024/03/22 05:49:27;;;;;;;15.07;9.70;;;5.30;99.90;;;;;;5043539;28;20336;-61
2024/03/22 05:51:53;;;;;;;16.63;10.17;;;5.30;99.90;;;;;;5018746;28;20802;-61
2024/03/22 05:54:20;;;;;;;16.90;9.73;;;5.30;99.90;;;;;;5044632;28;21009;-62
2024/03/22 05:56:45;;;;;;;21.30;10.80;;;5.30;99.90;;;;;;5041873;28;20203;-61
2024/03/22 05:59:11;;;;;;;16.43;10.80;;;5.40;99.90;;;;;;5049171;28;20843;-62
2024/03/22 06:01:38;;;;;;;14.40;9.50;;;5.40;99.90;;;;;;5029815;28;20180;-62
2024/03/22 06:04:04;;;;;;;17.97;10.43;;;5.40;99.90;;;;;;5044219;28;20172;-62
2024/03/22 06:06:29;;;;;;;20.63;10.13;;;5.40;99.90;;;;;;5042606;28;20449;-62
2024/03/22 06:08:56;;;;;;;18.50;10.00;;;5.40;99.90;;;;;;5024719;28;20899;-61
2024/03/22 06:11:22;;;;;;;19.60;11.47;;;5.40;99.90;;;;;;5047274;28;20210;-63
2024/03/22 06:13:48;;;;;;;16.77;9.37;;;5.40;99.90;;;;;;5046844;28;20437;-61
2024/03/22 06:16:14;;;;;;;14.53;9.70;;;5.40;99.90;;;;;;5044896;28;20261;-61
2024/03/22 06:18:40;;;;;;;14.53;9.37;;;5.40;99.90;;;;;;5047038;28;20225;-62
2024/03/22 06:21:06;;;;;;;12.60;9.30;;;5.40;99.90;;;;;;5037881;28;20592;-63
2024/03/22 06:23:32;;;;;;;14.53;9.03;;;5.40;99.90;;;;;;5036801;28;20445;-61
2024/03/22 06:25:59;;;;;;;15.90;9.80;;;5.40;99.90;;;;;;5046035;28;20249;-62
2024/03/22 06:28:25;;;;;;;16.33;9.90;;;5.40;99.90;;;;;;5046514;28;20433;-61
2024/03/22 06:30:51;;;;;;;15.27;8.83;;;5.40;99.90;;;;;;5046448;28;20428;-62
2024/03/22 06:33:16;;;;;;;16.80;9.33;;;5.40;99.90;;;;;;5047444;28;20807;-61
2024/03/22 06:35:42;;;;;;;17.10;9.90;;;5.40;99.90;;;;;;5042692;28;20211;-61
2024/03/22 06:38:08;;;;;;;24.13;10.03;;;5.50;99.90;;;;;;5042264;28;20183;-61
2024/03/22 06:40:33;;;;;;;16.43;9.87;;;5.50;99.90;;;;;;5023225;28;20262;-62
2024/03/22 06:42:59;;;;;;;16.63;9.10;;;5.60;99.90;;;;;;5049720;28;20194;-63
2024/03/22 06:45:25;;;;;;;14.93;10.17;;;5.60;99.90;;;;;;5046797;28;20423;-62
2024/03/22 06:47:50;;;;;;;14.07;10.10;;;5.70;99.90;;;;;;5049646;28;20210;-62
2024/03/22 06:50:23;;;;;;;18.20;9.67;;;5.90;99.90;;;;;;5045816;28;20233;-63
2024/03/22 06:52:55;;;;;;;23.63;10.60;;;6.00;99.90;;;;;;5046546;28;20262;-62
2024/03/22 06:55:24;;;;;;;17.73;11.30;;;6.10;99.90;;;;;;5043344;28;21006;-62
2024/03/22 06:57:51;;;;;;;15.87;10.33;;;6.10;99.90;;;;;;5046141;28;20486;-61
2024/03/22 07:00:17;;;;;;;18.13;10.43;;;6.20;99.90;;;;;;5041321;28;20850;-62
2024/03/22 07:02:43;;;;;;;13.73;9.03;;;6.30;99.90;;;;;;5041886;28;20996;-61
2024/03/22 07:05:10;;;;;;;17.30;11.03;;;6.40;99.90;;;;;;5040036;28;20421;-62
2024/03/22 07:07:36;;;;;;;22.93;11.13;;;6.50;99.90;;;;;;5043255;28;20446;-63
2024/03/22 07:10:03;;;;;;;18.60;11.20;;;6.60;99.90;;;;;;5022518;28;20430;-62
2024/03/22 07:12:29;;;;;;;20.43;11.37;;;6.60;99.90;;;;;;5043885;28;20971;-62
2024/03/22 07:14:59;;;;;;;19.70;11.67;;;6.70;99.90;;;;;;5046488;28;20475;-62
2024/03/22 07:17:25;;;;;;;23.90;12.83;;;6.80;99.90;;;;;;5041800;28;20203;-63
2024/03/22 07:19:51;;;;;;;17.60;11.93;;;6.90;99.90;;;;;;5038116;28;20437;-62
2024/03/22 07:22:17;;;;;;;25.60;12.77;;;7.00;99.90;;;;;;5037613;28;20349;-62
2024/03/22 07:24:43;;;;;;;18.30;11.23;;;7.10;99.90;;;;;;5043567;28;20504;-63
2024/03/22 07:27:09;;;;;;;27.20;12.43;;;7.20;99.90;;;;;;5042338;28;20517;-62
2024/03/22 07:29:35;;;;;;;18.03;11.20;;;7.20;99.90;;;;;;5040075;28;20488;-62
2024/03/22 07:32:00;;;;;;;19.63;11.47;;;7.30;99.90;;;;;;5045658;28;21007;-62
2024/03/22 07:34:26;;;;;;;21.60;10.60;;;7.40;99.90;;;;;;5042006;28;20183;-62
2024/03/22 07:36:51;;;;;;;16.57;11.50;;;7.50;99.90;;;;;;5017509;28;20599;-62
2024/03/22 07:39:17;;;;;;;16.47;11.60;;;7.60;99.90;;;;;;5046395;28;20210;-62
2024/03/22 07:41:43;;;;;;;18.37;10.87;;;7.70;99.90;;;;;;5038682;28;20179;-62
2024/03/22 07:44:08;;;;;;;23.47;10.70;;;7.80;99.90;;;;;;5038498;28;20180;-62
2024/03/22 07:46:34;;;;;;;17.17;11.30;;;7.80;99.90;;;;;;5048809;28;20198;-62
2024/03/22 07:49:00;;;;;;;23.20;11.90;;;7.90;99.90;;;;;;5042679;28;20641;-62
2024/03/22 07:51:25;;;;;;;16.90;11.10;;;8.00;99.90;;;;;;5039169;28;20179;-63
2024/03/22 07:53:51;;;;;;;24.43;12.93;;;8.10;99.90;;;;;;5037146;28;20530;-62
2024/03/22 07:56:17;;;;;;;18.13;11.60;;;8.20;99.90;;;;;;5042224;28;20213;-62
2024/03/22 07:58:43;;;;;;;21.83;11.60;;;8.20;99.90;;;;;;5037161;28;20421;-63
2024/03/22 08:01:09;;;;;;;21.70;11.60;;;8.30;99.90;;;;;;5027021;28;20661;-61
2024/03/22 08:03:34;;;;;;;18.73;11.70;;;8.30;99.90;;;;;;5036666;28;20188;-61
2024/03/22 08:06:00;;;;;;;31.43;12.30;;;8.40;99.90;;;;;;5039065;28;20939;-61
2024/03/22 08:08:25;;;;;;;17.47;11.07;;;8.50;99.90;;;;;;5037489;28;20245;-63
2024/03/22 08:10:51;;;;;;;18.40;10.67;;;8.50;99.90;;;;;;5020430;28;20270;-60
2024/03/22 08:13:17;;;;;;;19.20;10.80;;;8.60;99.90;;;;;;5042854;28;20183;-61
2024/03/22 08:15:45;;;;;;;14.90;9.43;;;8.70;99.90;;;;;;5038760;28;20229;-63
2024/03/22 08:18:11;;;;;;;13.60;9.40;;;8.80;99.90;;;;;;5021293;28;20191;-60
2024/03/22 08:20:38;;;;;;;15.10;9.23;;;8.90;99.90;;;;;;5041339;28;20434;-62
2024/03/22 08:23:07;;;;;;;14.20;9.50;;;9.00;99.90;;;;;;5045207;28;20195;-62
2024/03/22 08:25:32;;;;;;;16.63;10.27;;;9.10;99.90;;;;;;5047501;28;20425;-62
2024/03/22 08:27:59;;;;;;;16.10;11.10;;;9.30;99.90;;;;;;5041848;28;20509;-62
2024/03/22 08:30:25;;;;;;;23.63;9.93;;;9.40;99.90;;;;;;5026935;28;20602;-62
2024/03/22 08:32:53;;;;;;;20.10;9.73;;;9.60;99.90;;;;;;5041161;28;20430;-63
2024/03/22 08:35:19;;;;;;;23.13;10.60;;;9.80;99.90;;;;;;5038483;28;20191;-62
2024/03/22 08:37:45;;;;;;;20.97;11.47;;;10.00;99.70;;;;;;5036132;28;20468;-62
2024/03/22 08:40:12;;;;;;;18.43;11.43;;;10.20;96.70;;;;;;5037544;28;20183;-62
2024/03/22 08:42:37;;;;;;;14.23;10.10;;;10.40;95.40;;;;;;5033924;28;20795;-62
2024/03/22 08:45:04;;;;;;;17.10;9.70;;;10.50;93.40;;;;;;5041352;28;20444;-62
2024/03/22 08:47:31;;;;;;;13.40;9.37;;;10.70;90.90;;;;;;5040565;28;20199;-62
2024/03/22 08:49:57;;;;;;;15.27;8.50;;;10.80;86.40;;;;;;5029886;28;20441;-62
2024/03/22 08:52:24;;;;;;;12.40;7.87;;;11.00;84.40;;;;;;5040198;28;20563;-60
2024/03/22 08:54:52;;;;;;;15.83;9.10;;;11.20;80.60;;;;;;5043372;28;20417;-62
2024/03/22 08:57:19;;;;;;;13.20;7.67;;;11.40;76.60;;;;;;5041278;28;20457;-62
2024/03/22 08:59:45;;;;;;;12.83;6.87;;;11.60;75.50;;;;;;5039509;28;20431;-63
2024/03/22 09:02:11;;;;;;;11.50;7.50;;;11.70;74.10;;;;;;5040381;28;20506;-62
2024/03/22 09:04:37;;;;;;;9.07;7.40;;;11.70;72.80;;;;;;5042489;28;20187;-63
2024/03/22 09:07:02;;;;;;;10.60;7.53;;;11.80;71.00;;;;;;5029971;28;20558;-63
2024/03/22 09:09:28;;;;;;;11.83;7.47;;;11.90;70.40;;;;;;5044101;28;20414;-62
2024/03/22 09:11:54;;;;;;;13.23;6.90;;;11.90;70.00;;;;;;5043559;28;20181;-62
2024/03/22 09:14:20;;;;;;;10.33;6.43;;;12.00;70.30;;;;;;5040026;28;20183;-63
2024/03/22 09:16:45;;;;;;;10.70;7.17;;;12.10;70.20;;;;;;5054045;28;20572;-64
2024/03/22 09:19:11;;;;;;;12.70;6.93;;;12.30;70.30;;;;;;5050973;28;20441;-62
2024/03/22 09:21:37;;;;;;;8.13;5.90;;;12.40;70.10;;;;;;5038523;28;20710;-63
2024/03/22 09:24:05;;;;;;;8.73;5.93;;;12.60;69.70;;;;;;5028362;28;20175;-62
2024/03/22 09:26:32;;;;;;;8.83;5.90;;;12.80;68.50;;;;;;5041863;28;20196;-62
2024/03/22 09:28:57;;;;;;;8.37;5.70;;;13.00;68.00;;;;;;5045501;28;20532;-64
2024/03/22 09:31:23;;;;;;;8.53;5.70;;;13.20;67.20;;;;;;5046166;28;20513;-62
2024/03/22 09:33:49;;;;;;;8.60;5.40;;;13.40;66.40;;;;;;5047509;28;20180;-62
2024/03/22 09:36:14;;;;;;;10.07;6.10;;;13.50;65.40;;;;;;5046286;28;20875;-61
2024/03/22 09:38:41;;;;;;;8.17;5.73;;;13.60;64.10;;;;;;5045799;28;20175;-61
2024/03/22 09:41:07;;;;;;;7.67;5.37;;;13.70;63.90;;;;;;5039910;28;20183;-62
2024/03/22 09:43:34;;;;;;;7.43;5.43;;;13.90;64.10;;;;;;5051290;28;20809;-62
2024/03/22 09:46:01;;;;;;;11.10;5.40;;;13.90;63.70;;;;;;5034530;28;20203;-64
2024/03/22 09:48:28;;;;;;;5.53;4.90;;;14.00;63.70;;;;;;5044463;28;20954;-62
2024/03/22 09:50:55;;;;;;;8.57;4.70;;;14.10;62.60;;;;;;5047360;28;20440;-62
2024/03/22 09:53:22;;;;;;;11.33;5.40;;;14.20;62.80;;;;;;5043305;28;20425;-62
2024/03/22 09:55:49;;;;;;;9.60;4.97;;;14.30;61.40;;;;;;5048292;28;20460;-64
2024/03/22 09:58:16;;;;;;;12.20;5.03;;;14.50;62.40;;;;;;5042498;28;20414;-62
2024/03/22 10:00:42;;;;;;;7.30;4.93;;;14.60;61.20;;;;;;5043393;28;20535;-61
2024/03/22 10:03:09;;;;;;;5.63;4.30;;;14.80;61.10;;;;;;5043501;28;20893;-62
2024/03/22 10:05:35;;;;;;;4.70;3.90;;;14.90;60.10;;;;;;5019671;28;20198;-62
2024/03/22 10:08:01;;;;;;;6.13;4.20;;;15.00;59.60;;;;;;5049892;28;20425;-63
2024/03/22 10:10:27;;;;;;;6.73;4.10;;;15.00;58.70;;;;;;5029288;28;20190;-61
2024/03/22 10:12:55;;;;;;;6.40;4.30;;;15.10;58.30;;;;;;5044662;28;21010;-63
2024/03/22 10:15:23;;;;;;;4.37;3.60;;;15.20;59.10;;;;;;5043367;28;20866;-63
2024/03/22 10:17:49;;;;;;;5.83;3.50;;;15.30;57.90;;;;;;5048932;28;20472;-62
2024/03/22 10:20:14;;;;;;;6.20;4.43;;;15.50;57.20;;;;;;5042264;28;20452;-63
2024/03/22 10:22:47;;;;;;;7.87;4.30;;;15.50;55.50;;;;;;5038855;28;20708;-63
2024/03/22 10:25:13;;;;;;;6.60;4.23;;;15.60;55.30;;;;;;5044488;28;20241;-64
2024/03/22 10:27:40;;;;;;;5.23;3.53;;;15.60;55.00;;;;;;5039172;28;20866;-63
2024/03/22 10:30:09;;;;;;;7.37;3.70;;;15.60;53.10;;;;;;5026815;28;20237;-62
2024/03/22 10:32:36;;;;;;;8.63;3.20;;;15.60;54.30;;;;;;5045980;28;20944;-62
2024/03/22 10:35:05;;;;;;;7.63;3.53;;;15.70;52.90;;;;;;5046137;28;20458;-63
2024/03/22 10:37:32;;;;;;;4.47;3.70;;;15.70;53.30;;;;;;5046287;28;20501;-62
2024/03/22 10:40:01;;;;;;;7.00;3.50;;;15.70;53.90;;;;;;5041663;28;20442;-62
2024/03/22 10:42:26;;;;;;;6.60;3.80;;;15.90;54.10;;;;;;5048931;28;20449;-63
2024/03/22 10:44:52;;;;;;;6.67;4.00;;;15.90;54.20;;;;;;5044509;28;20433;-64
2024/03/22 10:47:20;;;;;;;7.50;3.70;;;16.10;54.30;;;;;;5043019;28;20211;-63
2024/03/22 10:49:48;;;;;;;6.40;4.00;;;16.30;54.50;;;;;;5039791;28;20730;-62
2024/03/22 10:52:14;;;;;;;4.67;3.80;;;16.50;52.50;;;;;;5048871;28;20495;-63
2024/03/22 10:54:43;;;;;;;4.47;3.90;;;16.40;51.80;;;;;;5034978;28;20426;-63
2024/03/22 10:57:13;;;;;;;6.37;3.67;;;16.50;52.00;;;;;;5042859;28;20987;-63
2024/03/22 10:59:41;;;;;;;3.77;2.93;;;16.50;52.50;;;;;;5037845;28;20425;-63
2024/03/22 11:02:10;;;;;;;4.50;3.47;;;16.70;53.10;;;;;;5039998;28;20991;-63
2024/03/22 11:04:35;;;;;;;5.80;3.70;;;16.80;52.40;;;;;;5028377;28;20465;-61
2024/03/22 11:07:03;;;;;;;4.83;3.83;;;16.90;51.80;;;;;;5042199;28;20485;-63
2024/03/22 11:09:29;;;;;;;9.43;4.27;;;16.90;50.80;;;;;;5043598;28;20689;-62
2024/03/22 11:12:00;;;;;;;5.67;3.20;;;16.90;50.80;;;;;;5049223;28;20508;-63
2024/03/22 11:14:26;;;;;;;6.00;3.70;;;16.90;50.60;;;;;;5043266;28;20438;-61
2024/03/22 11:16:52;;;;;;;5.63;3.47;;;16.90;51.20;;;;;;5030494;28;20475;-57
2024/03/22 11:19:18;;;;;;;7.13;3.93;;;17.00;51.30;;;;;;5046984;28;20183;-62
2024/03/22 11:21:44;;;;;;;6.50;3.93;;;17.20;51.80;;;;;;5028827;28;20424;-62
2024/03/22 11:24:11;;;;;;;8.97;3.50;;;17.40;51.60;;;;;;5041128;28;20665;-62
2024/03/22 11:26:37;;;;;;;4.90;3.43;;;17.50;50.70;;;;;;5047343;28;20222;-63
2024/03/22 11:29:03;;;;;;;4.17;3.53;;;17.60;50.60;;;;;;5046891;28;20484;-63
2024/03/22 11:31:28;;;;;;;5.17;4.13;;;17.60;51.10;;;;;;5045195;28;20283;-62
2024/03/22 11:33:54;;;;;;;7.60;4.27;;;17.60;49.90;;;;;;5043017;28;20433;-61
2024/03/22 11:36:20;;;;;;;5.57;3.50;;;17.60;49.80;;;;;;5036882;28;20215;-63
2024/03/22 11:38:49;;;;;;;5.07;3.50;;;17.70;50.30;;;;;;5012708;28;20425;-63
2024/03/22 11:41:21;;;;;;;4.27;3.50;;;17.80;50.50;;;;;;5046188;28;20437;-64
2024/03/22 11:43:47;;;;;;;4.47;3.80;;;17.90;49.60;;;;;;5042149;28;20925;-63
2024/03/22 11:46:15;;;;;;;5.67;4.13;;;18.10;49.20;;;;;;5049331;28;20444;-63
2024/03/22 11:48:41;;;;;;;7.10;4.97;;;18.20;49.10;;;;;;5042224;28;20461;-63
2024/03/22 11:51:11;;;;;;;4.60;3.70;;;18.30;49.30;;;;;;5028793;28;20437;-63
2024/03/22 11:53:37;;;;;;;5.77;4.30;;;18.30;48.50;;;;;;5039140;28;20445;-63
2024/03/22 11:56:04;;;;;;;6.23;4.03;;;18.30;48.80;;;;;;5039763;28;20466;-64
2024/03/22 11:58:30;;;;;;;6.13;4.00;;;18.30;48.80;;;;;;5043520;28;20424;-63
2024/03/22 12:00:59;;;;;;;6.63;4.47;;;18.40;48.70;;;;;;5046034;28;20429;-63
2024/03/22 12:03:25;;;;;;;5.50;4.40;;;18.50;49.20;;;;;;5043893;28;20236;-63
2024/03/22 12:05:54;;;;;;;11.17;5.50;;;18.70;49.10;;;;;;5043286;28;20544;-64
2024/03/22 12:08:20;;;;;;;6.37;4.77;;;18.70;48.70;;;;;;5042830;28;20182;-63
2024/03/22 12:10:45;;;;;;;8.40;5.23;;;18.60;49.30;;;;;;5049939;28;21053;-63
2024/03/22 12:13:11;;;;;;;7.03;4.30;;;18.50;49.80;;;;;;5045063;28;20286;-63
2024/03/22 12:15:36;;;;;;;5.43;3.70;;;18.50;49.70;;;;;;5040407;28;20842;-61
2024/03/22 12:18:03;;;;;;;5.63;4.10;;;18.70;49.10;;;;;;5040487;28;20182;-66
2024/03/22 12:20:29;;;;;;;4.60;3.23;;;18.90;49.20;;;;;;5041003;28;20191;-65
2024/03/22 12:22:55;;;;;;;4.00;3.43;;;19.20;49.10;;;;;;5037219;28;20921;-62
2024/03/22 12:25:20;;;;;;;11.23;4.20;;;19.40;47.80;;;;;;5038383;28;20453;-62
2024/03/22 12:27:46;;;;;;;5.20;3.50;;;19.50;47.60;;;;;;5043630;28;20199;-64
2024/03/22 12:30:12;;;;;;;4.80;3.47;;;19.70;47.20;;;;;;5027269;28;20184;-63
2024/03/22 12:32:38;;;;;;;5.33;3.33;;;19.80;46.50;;;;;;5041397;28;20185;-64
2024/03/22 12:35:04;;;;;;;5.37;3.27;;;19.80;45.80;;;;;;5044454;28;20191;-63
2024/03/22 12:37:30;;;;;;;4.43;3.30;;;20.00;46.80;;;;;;5046205;28;20677;-63
2024/03/22 12:39:55;;;;;;;5.33;3.10;;;20.10;45.70;;;;;;5046349;28;20422;-63